sensor_id;sensor_type;location;lat;lon;timestamp;temperature;humidity
12166;DHT22;6146;48.128;11.476;2022-10-19T00:01:11;15.10;99.90
12166;DHT22;6146;48.128;11.476;2022-10-19T00:03:37;15.10;99.90
12166;DHT22;6146;48.128;11.476;2022-10-19T00:06:36;15.10;99.90
12166;DHT22;6146;48.128;11.476;2022-10-19T00:09:10;15.10;99.90
12166;DHT22;6146;48.128;11.476;2022-10-19T00:11:39;14.60;99.90
12166;DHT22;6146;48.128;11.476;2022-10-19T00:14:05;15.10;99.90
12166;DHT22;6146;48.128;11.476;2022-10-19T00:16:35;15.10;99.90
12166;DHT22;6146;48.128;11.476;2022-10-19T00:19:03;15.10;99.90
12166;DHT22;6146;48.128;11.476;2022-10-19T00:21:29;15.10;99.90
12166;DHT22;6146;48.128;11.476;2022-10-19T00:23:55;15.10;99.90
12166;DHT22;6146;48.128;11.476;2022-10-19T00:26:21;15.20;99.90
12166;DHT22;6146;48.128;11.476;2022-10-19T00:28:46;15.10;99.90
12166;DHT22;6146;48.128;11.476;2022-10-19T00:31:14;15.20;99.90
12166;DHT22;6146;48.128;11.476;2022-10-19T00:33:41;15.20;99.90
12166;DHT22;6146;48.128;11.476;2022-10-19T00:36:15;15.20;99.90
12166;DHT22;6146;48.128;11.476;2022-10-19T00:38:41;15.20;99.90
12166;DHT22;6146;48.128;11.476;2022-10-19T00:41:07;15.30;99.90
12166;DHT22;6146;48.128;11.476;2022-10-19T00:46:43;15.30;99.90
12166;DHT22;6146;48.128;11.476;2022-10-19T00:49:20;15.30;99.90
12166;DHT22;6146;48.128;11.476;2022-10-19T00:51:50;15.30;99.90
12166;DHT22;6146;48.128;11.476;2022-10-19T00:54:17;15.40;99.90
12166;DHT22;6146;48.128;11.476;2022-10-19T00:56:45;15.40;99.90
12166;DHT22;6146;48.128;11.476;2022-10-19T00:59:12;15.40;99.90
12166;DHT22;6146;48.128;11.476;2022-10-19T01:01:39;15.40;99.90
12166;DHT22;6146;48.128;11.476;2022-10-19T01:04:06;15.40;99.90
12166;DHT22;6146;48.128;11.476;2022-10-19T01:06:33;15.30;99.90
12166;DHT22;6146;48.128;11.476;2022-10-19T01:08:59;15.30;99.90
12166;DHT22;6146;48.128;11.476;2022-10-19T01:19:56;15.30;99.90
12166;DHT22;6146;48.128;11.476;2022-10-19T01:41:36;15.10;99.90
12166;DHT22;6146;48.128;11.476;2022-10-19T01:46:55;15.20;99.90
12166;DHT22;6146;48.128;11.476;2022-10-19T01:49:33;15.20;99.90
12166;DHT22;6146;48.128;11.476;2022-10-19T01:52:04;15.10;99.90
12166;DHT22;6146;48.128;11.476;2022-10-19T01:54:35;15.10;99.90
12166;DHT22;6146;48.128;11.476;2022-10-19T01:57:05;15.10;99.90
12166;DHT22;6146;48.128;11.476;2022-10-19T01:59:32;15.10;99.90
12166;DHT22;6146;48.128;11.476;2022-10-19T02:01:58;15.20;99.90
12166;DHT22;6146;48.128;11.476;2022-10-19T02:04:24;15.10;99.90
12166;DHT22;6146;48.128;11.476;2022-10-19T02:06:52;15.10;99.90
12166;DHT22;6146;48.128;11.476;2022-10-19T02:09:18;15.10;99.90
12166;DHT22;6146;48.128;11.476;2022-10-19T02:11:50;15.10;99.90
12166;DHT22;6146;48.128;11.476;2022-10-19T02:14:19;15.10;99.90
12166;DHT22;6146;48.128;11.476;2022-10-19T02:16:51;15.20;99.90
12166;DHT22;6146;48.128;11.476;2022-10-19T02:19:20;15.20;99.90
12166;DHT22;6146;48.128;11.476;2022-10-19T02:21:46;15.20;99.90
12166;DHT22;6146;48.128;11.476;2022-10-19T02:24:12;15.20;99.90
12166;DHT22;6146;48.128;11.476;2022-10-19T02:26:38;15.10;99.90
12166;DHT22;6146;48.128;11.476;2022-10-19T02:29:04;15.20;99.90
12166;DHT22;6146;48.128;11.476;2022-10-19T02:31:30;15.20;99.90
12166;DHT22;6146;48.128;11.476;2022-10-19T02:33:56;15.20;99.90
12166;DHT22;6146;48.128;11.476;2022-10-19T02:36:21;15.20;99.90
12166;DHT22;6146;48.128;11.476;2022-10-19T02:38:47;15.20;99.90
12166;DHT22;6146;48.128;11.476;2022-10-19T02:41:14;15.20;99.90
12166;DHT22;6146;48.128;11.476;2022-10-19T02:43:42;15.20;99.90
12166;DHT22;6146;48.128;11.476;2022-10-19T02:46:26;15.30;99.90
12166;DHT22;6146;48.128;11.476;2022-10-19T02:48:53;15.30;99.90
12166;DHT22;6146;48.128;11.476;2022-10-19T02:53:58;15.40;99.90
12166;DHT22;6146;48.128;11.476;2022-10-19T02:56:23;15.40;99.90
12166;DHT22;6146;48.128;11.476;2022-10-19T02:58:49;15.30;99.90
12166;DHT22;6146;48.128;11.476;2022-10-19T03:01:14;15.40;99.90
12166;DHT22;6146;48.128;11.476;2022-10-19T03:03:40;15.30;99.90
12166;DHT22;6146;48.128;11.476;2022-10-19T03:06:05;15.40;99.90
12166;DHT22;6146;48.128;11.476;2022-10-19T03:08:31;15.30;99.90
12166;DHT22;6146;48.128;11.476;2022-10-19T03:11:00;15.20;99.90
12166;DHT22;6146;48.128;11.476;2022-10-19T03:13:25;15.30;99.90
12166;DHT22;6146;48.128;11.476;2022-10-19T03:15:51;15.20;99.90
12166;DHT22;6146;48.128;11.476;2022-10-19T03:18:16;15.20;99.90
12166;DHT22;6146;48.128;11.476;2022-10-19T03:20:42;15.20;99.90
12166;DHT22;6146;48.128;11.476;2022-10-19T03:23:08;15.30;99.90
12166;DHT22;6146;48.128;11.476;2022-10-19T03:25:33;15.30;99.90
12166;DHT22;6146;48.128;11.476;2022-10-19T03:27:59;15.20;99.90
12166;DHT22;6146;48.128;11.476;2022-10-19T03:30:25;15.20;99.90
12166;DHT22;6146;48.128;11.476;2022-10-19T03:32:50;15.20;99.90
12166;DHT22;6146;48.128;11.476;2022-10-19T03:35:16;15.20;99.90
12166;DHT22;6146;48.128;11.476;2022-10-19T03:37:42;15.30;99.90
12166;DHT22;6146;48.128;11.476;2022-10-19T03:40:08;15.30;99.90
12166;DHT22;6146;48.128;11.476;2022-10-19T03:42:33;15.30;99.90
12166;DHT22;6146;48.128;11.476;2022-10-19T03:44:59;15.30;99.90
12166;DHT22;6146;48.128;11.476;2022-10-19T03:47:24;15.30;99.90
12166;DHT22;6146;48.128;11.476;2022-10-19T03:49:50;15.30;99.90
12166;DHT22;6146;48.128;11.476;2022-10-19T03:52:19;15.30;99.90
12166;DHT22;6146;48.128;11.476;2022-10-19T03:54:48;15.30;99.90
12166;DHT22;6146;48.128;11.476;2022-10-19T03:57:14;15.30;99.90
12166;DHT22;6146;48.128;11.476;2022-10-19T03:59:39;15.40;99.90
12166;DHT22;6146;48.128;11.476;2022-10-19T04:02:05;15.30;99.90
12166;DHT22;6146;48.128;11.476;2022-10-19T04:04:30;15.40;99.90
12166;DHT22;6146;48.128;11.476;2022-10-19T04:06:56;15.30;99.90
12166;DHT22;6146;48.128;11.476;2022-10-19T04:09:22;15.30;99.90
12166;DHT22;6146;48.128;11.476;2022-10-19T04:11:48;15.30;99.90
12166;DHT22;6146;48.128;11.476;2022-10-19T04:14:15;15.30;99.90
12166;DHT22;6146;48.128;11.476;2022-10-19T04:16:41;15.30;99.90
12166;DHT22;6146;48.128;11.476;2022-10-19T04:19:07;15.30;99.90
12166;DHT22;6146;48.128;11.476;2022-10-19T04:21:35;15.30;99.90
12166;DHT22;6146;48.128;11.476;2022-10-19T04:26:32;15.30;99.90
12166;DHT22;6146;48.128;11.476;2022-10-19T04:28:58;15.30;99.90
12166;DHT22;6146;48.128;11.476;2022-10-19T04:31:25;15.30;99.90
12166;DHT22;6146;48.128;11.476;2022-10-19T04:33:51;15.30;99.90
12166;DHT22;6146;48.128;11.476;2022-10-19T04:36:17;15.20;99.90
12166;DHT22;6146;48.128;11.476;2022-10-19T04:38:43;15.20;99.90
12166;DHT22;6146;48.128;11.476;2022-10-19T04:41:13;15.10;99.90
12166;DHT22;6146;48.128;11.476;2022-10-19T04:43:40;15.10;99.90
12166;DHT22;6146;48.128;11.476;2022-10-19T04:46:10;15.10;99.90
12166;DHT22;6146;48.128;11.476;2022-10-19T04:48:37;15.10;99.90
12166;DHT22;6146;48.128;11.476;2022-10-19T04:51:03;15.10;99.90
12166;DHT22;6146;48.128;11.476;2022-10-19T04:53:30;15.10;99.90
12166;DHT22;6146;48.128;11.476;2022-10-19T04:55:56;15.10;99.90
12166;DHT22;6146;48.128;11.476;2022-10-19T04:58:21;15.20;99.90
12166;DHT22;6146;48.128;11.476;2022-10-19T05:00:47;15.10;99.90
12166;DHT22;6146;48.128;11.476;2022-10-19T05:03:13;15.20;99.90
12166;DHT22;6146;48.128;11.476;2022-10-19T05:05:39;15.20;99.90
12166;DHT22;6146;48.128;11.476;2022-10-19T05:08:04;15.20;99.90
12166;DHT22;6146;48.128;11.476;2022-10-19T05:10:30;15.20;99.90
12166;DHT22;6146;48.128;11.476;2022-10-19T05:12:56;15.30;99.90
12166;DHT22;6146;48.128;11.476;2022-10-19T05:15:21;15.20;99.90
12166;DHT22;6146;48.128;11.476;2022-10-19T05:17:47;15.30;99.90
12166;DHT22;6146;48.128;11.476;2022-10-19T05:20:13;15.30;99.90
12166;DHT22;6146;48.128;11.476;2022-10-19T05:22:38;15.30;99.90
12166;DHT22;6146;48.128;11.476;2022-10-19T05:25:06;15.40;99.90
12166;DHT22;6146;48.128;11.476;2022-10-19T05:27:31;15.40;99.90
12166;DHT22;6146;48.128;11.476;2022-10-19T05:29:57;15.40;99.90
12166;DHT22;6146;48.128;11.476;2022-10-19T05:32:23;15.40;99.90
12166;DHT22;6146;48.128;11.476;2022-10-19T05:34:48;15.40;99.90
12166;DHT22;6146;48.128;11.476;2022-10-19T05:37:15;15.40;99.90
12166;DHT22;6146;48.128;11.476;2022-10-19T05:39:41;15.40;99.90
12166;DHT22;6146;48.128;11.476;2022-10-19T05:42:07;15.00;99.90
12166;DHT22;6146;48.128;11.476;2022-10-19T05:44:32;15.30;99.90
12166;DHT22;6146;48.128;11.476;2022-10-19T05:46:58;15.30;99.90
12166;DHT22;6146;48.128;11.476;2022-10-19T05:49:24;15.30;99.90
12166;DHT22;6146;48.128;11.476;2022-10-19T05:51:50;15.30;99.90
12166;DHT22;6146;48.128;11.476;2022-10-19T05:54:16;15.30;99.90
12166;DHT22;6146;48.128;11.476;2022-10-19T05:56:42;15.40;99.90
12166;DHT22;6146;48.128;11.476;2022-10-19T05:59:10;15.40;99.90
12166;DHT22;6146;48.128;11.476;2022-10-19T06:01:38;15.50;99.90
12166;DHT22;6146;48.128;11.476;2022-10-19T06:04:03;15.50;99.90
12166;DHT22;6146;48.128;11.476;2022-10-19T06:06:30;15.50;99.90
12166;DHT22;6146;48.128;11.476;2022-10-19T06:08:56;15.50;99.90
12166;DHT22;6146;48.128;11.476;2022-10-19T06:11:28;15.50;99.90
12166;DHT22;6146;48.128;11.476;2022-10-19T06:13:57;15.50;99.90
12166;DHT22;6146;48.128;11.476;2022-10-19T06:16:25;15.60;99.90
12166;DHT22;6146;48.128;11.476;2022-10-19T06:18:52;15.60;99.90
12166;DHT22;6146;48.128;11.476;2022-10-19T06:21:21;15.60;99.90
12166;DHT22;6146;48.128;11.476;2022-10-19T06:23:55;15.70;99.90
12166;DHT22;6146;48.128;11.476;2022-10-19T06:26:21;15.70;99.90
12166;DHT22;6146;48.128;11.476;2022-10-19T06:28:48;15.80;99.90
12166;DHT22;6146;48.128;11.476;2022-10-19T06:31:13;15.90;99.90
12166;DHT22;6146;48.128;11.476;2022-10-19T06:33:40;15.90;99.90
12166;DHT22;6146;48.128;11.476;2022-10-19T06:36:18;15.90;99.90
12166;DHT22;6146;48.128;11.476;2022-10-19T06:38:45;15.90;99.90
12166;DHT22;6146;48.128;11.476;2022-10-19T06:41:11;15.90;99.90
12166;DHT22;6146;48.128;11.476;2022-10-19T06:43:37;15.90;99.90
12166;DHT22;6146;48.128;11.476;2022-10-19T06:46:12;15.90;99.90
12166;DHT22;6146;48.128;11.476;2022-10-19T06:48:40;16.00;99.90
12166;DHT22;6146;48.128;11.476;2022-10-19T06:51:06;16.00;99.90
12166;DHT22;6146;48.128;11.476;2022-10-19T06:53:35;16.10;99.90
12166;DHT22;6146;48.128;11.476;2022-10-19T06:56:02;16.10;99.90
12166;DHT22;6146;48.128;11.476;2022-10-19T06:58:28;16.10;99.90
12166;DHT22;6146;48.128;11.476;2022-10-19T07:00:56;16.10;99.90
12166;DHT22;6146;48.128;11.476;2022-10-19T07:03:22;16.10;99.90
12166;DHT22;6146;48.128;11.476;2022-10-19T07:05:56;16.10;99.90
12166;DHT22;6146;48.128;11.476;2022-10-19T07:08:23;16.10;99.90
12166;DHT22;6146;48.128;11.476;2022-10-19T07:10:50;16.00;99.90
12166;DHT22;6146;48.128;11.476;2022-10-19T07:13:15;16.00;99.90
12166;DHT22;6146;48.128;11.476;2022-10-19T07:15:41;16.00;99.90
12166;DHT22;6146;48.128;11.476;2022-10-19T07:18:06;16.00;99.90
12166;DHT22;6146;48.128;11.476;2022-10-19T07:20:32;16.10;99.90
12166;DHT22;6146;48.128;11.476;2022-10-19T07:22:58;16.10;99.90
12166;DHT22;6146;48.128;11.476;2022-10-19T07:25:23;16.10;99.90
12166;DHT22;6146;48.128;11.476;2022-10-19T07:27:49;16.10;99.90
12166;DHT22;6146;48.128;11.476;2022-10-19T07:30:14;16.10;99.90
12166;DHT22;6146;48.128;11.476;2022-10-19T07:32:40;16.20;99.90
12166;DHT22;6146;48.128;11.476;2022-10-19T07:35:06;16.30;99.90
12166;DHT22;6146;48.128;11.476;2022-10-19T07:37:31;16.30;99.90
12166;DHT22;6146;48.128;11.476;2022-10-19T07:39:57;16.20;99.90
12166;DHT22;6146;48.128;11.476;2022-10-19T07:42:22;16.10;99.90
12166;DHT22;6146;48.128;11.476;2022-10-19T07:44:48;16.10;99.90
12166;DHT22;6146;48.128;11.476;2022-10-19T07:47:13;16.10;99.90
12166;DHT22;6146;48.128;11.476;2022-10-19T07:49:39;16.20;99.90
12166;DHT22;6146;48.128;11.476;2022-10-19T07:52:05;16.30;99.90
12166;DHT22;6146;48.128;11.476;2022-10-19T07:54:30;16.30;99.90
12166;DHT22;6146;48.128;11.476;2022-10-19T07:56:56;16.30;99.90
12166;DHT22;6146;48.128;11.476;2022-10-19T07:59:21;16.40;99.90
12166;DHT22;6146;48.128;11.476;2022-10-19T08:01:47;16.50;99.90
12166;DHT22;6146;48.128;11.476;2022-10-19T08:04:13;16.50;99.90
12166;DHT22;6146;48.128;11.476;2022-10-19T08:06:39;16.50;99.90
12166;DHT22;6146;48.128;11.476;2022-10-19T08:09:04;16.40;99.90
12166;DHT22;6146;48.128;11.476;2022-10-19T08:11:32;16.50;99.90
12166;DHT22;6146;48.128;11.476;2022-10-19T08:13:58;16.50;99.90
12166;DHT22;6146;48.128;11.476;2022-10-19T08:16:35;16.50;99.90
12166;DHT22;6146;48.128;11.476;2022-10-19T08:19:22;16.50;99.90
12166;DHT22;6146;48.128;11.476;2022-10-19T08:21:48;16.60;99.90
12166;DHT22;6146;48.128;11.476;2022-10-19T08:24:15;16.60;99.90
12166;DHT22;6146;48.128;11.476;2022-10-19T08:26:42;16.60;99.90
12166;DHT22;6146;48.128;11.476;2022-10-19T08:29:13;16.70;99.90
12166;DHT22;6146;48.128;11.476;2022-10-19T08:31:40;16.80;99.90
12166;DHT22;6146;48.128;11.476;2022-10-19T08:34:07;16.80;99.90
12166;DHT22;6146;48.128;11.476;2022-10-19T08:36:32;16.90;99.90
12166;DHT22;6146;48.128;11.476;2022-10-19T08:39:00;16.90;99.90
12166;DHT22;6146;48.128;11.476;2022-10-19T08:49:39;17.10;99.90
12166;DHT22;6146;48.128;11.476;2022-10-19T08:52:18;17.10;99.90
12166;DHT22;6146;48.128;11.476;2022-10-19T09:00:39;17.10;99.90
12166;DHT22;6146;48.128;11.476;2022-10-19T09:03:44;17.00;99.90
12166;DHT22;6146;48.128;11.476;2022-10-19T09:08:58;16.90;99.90
12166;DHT22;6146;48.128;11.476;2022-10-19T09:11:28;16.90;99.90
12166;DHT22;6146;48.128;11.476;2022-10-19T09:14:24;16.90;99.90
12166;DHT22;6146;48.128;11.476;2022-10-19T09:16:52;16.80;99.90
12166;DHT22;6146;48.128;11.476;2022-10-19T09:19:23;16.90;99.90
12166;DHT22;6146;48.128;11.476;2022-10-19T09:21:57;16.90;99.90
12166;DHT22;6146;48.128;11.476;2022-10-19T09:27:25;16.80;99.90
12166;DHT22;6146;48.128;11.476;2022-10-19T09:29:54;16.80;99.90
12166;DHT22;6146;48.128;11.476;2022-10-19T09:32:38;16.90;99.90
12166;DHT22;6146;48.128;11.476;2022-10-19T09:37:46;17.20;99.90
12166;DHT22;6146;48.128;11.476;2022-10-19T09:40:24;17.30;99.90
12166;DHT22;6146;48.128;11.476;2022-10-19T09:42:50;17.50;99.90
12166;DHT22;6146;48.128;11.476;2022-10-19T09:45:37;17.60;99.90
12166;DHT22;6146;48.128;11.476;2022-10-19T09:48:13;17.70;99.90
12166;DHT22;6146;48.128;11.476;2022-10-19T09:50:43;17.60;99.90
12166;DHT22;6146;48.128;11.476;2022-10-19T09:53:17;17.50;99.90
12166;DHT22;6146;48.128;11.476;2022-10-19T09:55:47;17.50;99.90
12166;DHT22;6146;48.128;11.476;2022-10-19T09:58:19;17.50;99.90
12166;DHT22;6146;48.128;11.476;2022-10-19T10:00:49;17.40;99.90
12166;DHT22;6146;48.128;11.476;2022-10-19T10:03:34;17.30;99.90
12166;DHT22;6146;48.128;11.476;2022-10-19T10:06:13;16.90;99.90
12166;DHT22;6146;48.128;11.476;2022-10-19T10:08:47;16.90;99.90
12166;DHT22;6146;48.128;11.476;2022-10-19T10:11:22;16.90;99.90
12166;DHT22;6146;48.128;11.476;2022-10-19T10:13:50;16.90;99.90
12166;DHT22;6146;48.128;11.476;2022-10-19T10:16:19;17.00;99.90
12166;DHT22;6146;48.128;11.476;2022-10-19T10:19:06;16.90;99.90
12166;DHT22;6146;48.128;11.476;2022-10-19T10:26:53;16.80;99.90
12166;DHT22;6146;48.128;11.476;2022-10-19T10:29:26;16.90;99.90
12166;DHT22;6146;48.128;11.476;2022-10-19T10:32:18;17.00;99.90
12166;DHT22;6146;48.128;11.476;2022-10-19T10:34:53;17.20;99.90
12166;DHT22;6146;48.128;11.476;2022-10-19T10:37:40;17.30;99.90
12166;DHT22;6146;48.128;11.476;2022-10-19T10:40:25;17.30;99.90
12166;DHT22;6146;48.128;11.476;2022-10-19T10:42:53;17.30;99.90
12166;DHT22;6146;48.128;11.476;2022-10-19T10:45:32;17.40;99.90
12166;DHT22;6146;48.128;11.476;2022-10-19T10:48:27;17.40;99.90
12166;DHT22;6146;48.128;11.476;2022-10-19T10:50:55;17.40;99.90
12166;DHT22;6146;48.128;11.476;2022-10-19T10:55:59;17.30;99.90
12166;DHT22;6146;48.128;11.476;2022-10-19T11:01:17;17.50;99.90
12166;DHT22;6146;48.128;11.476;2022-10-19T11:04:05;17.40;99.90
12166;DHT22;6146;48.128;11.476;2022-10-19T11:06:38;17.40;99.90
12166;DHT22;6146;48.128;11.476;2022-10-19T11:09:30;17.30;99.90
12166;DHT22;6146;48.128;11.476;2022-10-19T11:12:01;17.30;99.90
12166;DHT22;6146;48.128;11.476;2022-10-19T11:17:04;17.30;99.90
12166;DHT22;6146;48.128;11.476;2022-10-19T11:19:42;17.20;99.90
12166;DHT22;6146;48.128;11.476;2022-10-19T11:30:21;16.90;99.90
12166;DHT22;6146;48.128;11.476;2022-10-19T11:33:16;16.90;99.90
12166;DHT22;6146;48.128;11.476;2022-10-19T11:35:57;16.90;99.90
12166;DHT22;6146;48.128;11.476;2022-10-19T11:41:24;16.80;99.90
12166;DHT22;6146;48.128;11.476;2022-10-19T11:44:13;17.00;99.90
12166;DHT22;6146;48.128;11.476;2022-10-19T11:46:42;17.10;99.90
12166;DHT22;6146;48.128;11.476;2022-10-19T11:52:15;17.30;99.90
12166;DHT22;6146;48.128;11.476;2022-10-19T11:57:29;17.60;99.90
12166;DHT22;6146;48.128;11.476;2022-10-19T12:00:08;17.80;99.90
12166;DHT22;6146;48.128;11.476;2022-10-19T12:05:31;17.70;99.90
12166;DHT22;6146;48.128;11.476;2022-10-19T12:13:10;17.50;99.90
12166;DHT22;6146;48.128;11.476;2022-10-19T12:15:38;17.60;99.90
12166;DHT22;6146;48.128;11.476;2022-10-19T12:18:18;17.70;99.90
12166;DHT22;6146;48.128;11.476;2022-10-19T12:20:48;18.00;99.90
12166;DHT22;6146;48.128;11.476;2022-10-19T12:23:30;18.30;99.90
12166;DHT22;6146;48.128;11.476;2022-10-19T12:25:59;18.10;99.90
12166;DHT22;6146;48.128;11.476;2022-10-19T12:28:31;18.10;99.90
12166;DHT22;6146;48.128;11.476;2022-10-19T12:30:58;18.00;99.90
12166;DHT22;6146;48.128;11.476;2022-10-19T12:39:07;18.20;99.90
12166;DHT22;6146;48.128;11.476;2022-10-19T12:41:44;18.00;99.90
12166;DHT22;6146;48.128;11.476;2022-10-19T12:47:20;18.30;99.90
12166;DHT22;6146;48.128;11.476;2022-10-19T12:49:48;18.50;99.90
12166;DHT22;6146;48.128;11.476;2022-10-19T12:52:32;18.60;99.90
12166;DHT22;6146;48.128;11.476;2022-10-19T12:57:47;18.30;99.90
12166;DHT22;6146;48.128;11.476;2022-10-19T13:00:24;18.00;99.90
12166;DHT22;6146;48.128;11.476;2022-10-19T13:03:03;18.00;99.90
12166;DHT22;6146;48.128;11.476;2022-10-19T13:05:31;18.40;99.90
12166;DHT22;6146;48.128;11.476;2022-10-19T13:08:00;19.00;99.90
12166;DHT22;6146;48.128;11.476;2022-10-19T13:10:27;19.20;99.90
12166;DHT22;6146;48.128;11.476;2022-10-19T13:12:54;19.10;99.90
12166;DHT22;6146;48.128;11.476;2022-10-19T13:18:01;19.60;99.90
12166;DHT22;6146;48.128;11.476;2022-10-19T13:25:45;19.40;99.90
12166;DHT22;6146;48.128;11.476;2022-10-19T13:36:06;19.20;99.90
12166;DHT22;6146;48.128;11.476;2022-10-19T13:38:36;19.10;99.90
12166;DHT22;6146;48.128;11.476;2022-10-19T13:41:09;19.20;99.90
12166;DHT22;6146;48.128;11.476;2022-10-19T13:49:06;20.30;99.90
12166;DHT22;6146;48.128;11.476;2022-10-19T13:52:02;20.40;99.90
12166;DHT22;6146;48.128;11.476;2022-10-19T14:00:22;19.60;99.90
12166;DHT22;6146;48.128;11.476;2022-10-19T14:11:52;19.30;99.90
12166;DHT22;6146;48.128;11.476;2022-10-19T14:14:22;19.20;99.90
12166;DHT22;6146;48.128;11.476;2022-10-19T14:16:57;19.00;99.90
12166;DHT22;6146;48.128;11.476;2022-10-19T14:19:39;18.80;99.90
12166;DHT22;6146;48.128;11.476;2022-10-19T14:25:00;18.40;99.90
12166;DHT22;6146;48.128;11.476;2022-10-19T14:27:25;17.90;99.90
12166;DHT22;6146;48.128;11.476;2022-10-19T14:29:52;17.60;99.90
12166;DHT22;6146;48.128;11.476;2022-10-19T14:32:22;17.20;99.90
12166;DHT22;6146;48.128;11.476;2022-10-19T14:34:48;17.30;99.90
12166;DHT22;6146;48.128;11.476;2022-10-19T14:37:33;17.40;99.90
12166;DHT22;6146;48.128;11.476;2022-10-19T14:42:44;17.60;99.90
12166;DHT22;6146;48.128;11.476;2022-10-19T14:45:22;17.50;99.90
12166;DHT22;6146;48.128;11.476;2022-10-19T14:47:55;17.50;99.90
12166;DHT22;6146;48.128;11.476;2022-10-19T14:53:08;17.40;99.90
12166;DHT22;6146;48.128;11.476;2022-10-19T14:55:41;17.40;99.90
12166;DHT22;6146;48.128;11.476;2022-10-19T14:58:12;17.40;99.90
12166;DHT22;6146;48.128;11.476;2022-10-19T15:00:38;17.40;99.90
12166;DHT22;6146;48.128;11.476;2022-10-19T15:03:05;17.50;99.90
12166;DHT22;6146;48.128;11.476;2022-10-19T15:05:35;17.40;99.90
12166;DHT22;6146;48.128;11.476;2022-10-19T15:08:10;17.40;99.90
12166;DHT22;6146;48.128;11.476;2022-10-19T15:10:42;17.40;99.90
12166;DHT22;6146;48.128;11.476;2022-10-19T15:13:21;17.30;99.90
12166;DHT22;6146;48.128;11.476;2022-10-19T15:15:50;17.30;99.90
12166;DHT22;6146;48.128;11.476;2022-10-19T15:18:17;17.30;99.90
12166;DHT22;6146;48.128;11.476;2022-10-19T15:20:43;17.30;99.90
12166;DHT22;6146;48.128;11.476;2022-10-19T15:23:38;17.20;99.90
12166;DHT22;6146;48.128;11.476;2022-10-19T15:26:26;17.10;99.90
12166;DHT22;6146;48.128;11.476;2022-10-19T15:28:54;17.00;99.90
12166;DHT22;6146;48.128;11.476;2022-10-19T15:31:30;16.80;99.90
12166;DHT22;6146;48.128;11.476;2022-10-19T15:33:58;16.80;99.90
12166;DHT22;6146;48.128;11.476;2022-10-19T15:36:25;16.70;99.90
12166;DHT22;6146;48.128;11.476;2022-10-19T15:39:03;16.70;99.90
12166;DHT22;6146;48.128;11.476;2022-10-19T15:41:34;16.50;99.90
12166;DHT22;6146;48.128;11.476;2022-10-19T15:44:02;16.50;99.90
12166;DHT22;6146;48.128;11.476;2022-10-19T15:46:35;16.40;99.90
12166;DHT22;6146;48.128;11.476;2022-10-19T15:49:49;16.30;99.90
12166;DHT22;6146;48.128;11.476;2022-10-19T15:52:15;16.30;99.90
12166;DHT22;6146;48.128;11.476;2022-10-19T15:54:40;16.30;99.90
12166;DHT22;6146;48.128;11.476;2022-10-19T15:57:29;16.20;99.90
12166;DHT22;6146;48.128;11.476;2022-10-19T15:59:56;16.20;99.90
12166;DHT22;6146;48.128;11.476;2022-10-19T16:02:22;16.20;99.90
12166;DHT22;6146;48.128;11.476;2022-10-19T16:04:54;16.20;99.90
12166;DHT22;6146;48.128;11.476;2022-10-19T16:07:30;16.20;99.90
12166;DHT22;6146;48.128;11.476;2022-10-19T16:09:57;16.20;99.90
12166;DHT22;6146;48.128;11.476;2022-10-19T16:12:23;16.20;99.90
12166;DHT22;6146;48.128;11.476;2022-10-19T16:14:50;16.20;99.90
12166;DHT22;6146;48.128;11.476;2022-10-19T16:17:16;16.00;99.90
12166;DHT22;6146;48.128;11.476;2022-10-19T16:19:43;16.00;99.90
12166;DHT22;6146;48.128;11.476;2022-10-19T16:22:09;15.90;99.90
12166;DHT22;6146;48.128;11.476;2022-10-19T16:24:35;15.90;99.90
12166;DHT22;6146;48.128;11.476;2022-10-19T16:27:01;15.80;99.90
12166;DHT22;6146;48.128;11.476;2022-10-19T16:29:26;15.80;99.90
12166;DHT22;6146;48.128;11.476;2022-10-19T16:31:52;15.70;99.90
12166;DHT22;6146;48.128;11.476;2022-10-19T16:34:17;15.60;99.90
12166;DHT22;6146;48.128;11.476;2022-10-19T16:36:43;15.60;99.90
12166;DHT22;6146;48.128;11.476;2022-10-19T16:39:09;15.50;99.90
12166;DHT22;6146;48.128;11.476;2022-10-19T16:41:34;15.50;99.90
12166;DHT22;6146;48.128;11.476;2022-10-19T16:44:00;15.50;99.90
12166;DHT22;6146;48.128;11.476;2022-10-19T16:46:25;15.40;99.90
12166;DHT22;6146;48.128;11.476;2022-10-19T16:48:51;15.40;99.90
12166;DHT22;6146;48.128;11.476;2022-10-19T16:51:35;15.40;99.90
12166;DHT22;6146;48.128;11.476;2022-10-19T16:54:02;15.40;99.90
12166;DHT22;6146;48.128;11.476;2022-10-19T16:56:29;15.40;99.90
12166;DHT22;6146;48.128;11.476;2022-10-19T16:58:57;15.40;99.90
12166;DHT22;6146;48.128;11.476;2022-10-19T17:01:24;15.50;99.90
12166;DHT22;6146;48.128;11.476;2022-10-19T17:03:50;15.60;99.90
12166;DHT22;6146;48.128;11.476;2022-10-19T17:06:16;15.60;99.90
12166;DHT22;6146;48.128;11.476;2022-10-19T17:08:42;15.60;99.90
12166;DHT22;6146;48.128;11.476;2022-10-19T17:11:24;15.60;99.90
12166;DHT22;6146;48.128;11.476;2022-10-19T17:13:51;15.60;99.90
12166;DHT22;6146;48.128;11.476;2022-10-19T17:16:18;15.60;99.90
12166;DHT22;6146;48.128;11.476;2022-10-19T17:18:44;15.50;99.90
12166;DHT22;6146;48.128;11.476;2022-10-19T17:21:12;15.50;99.90
12166;DHT22;6146;48.128;11.476;2022-10-19T17:23:38;15.50;99.90
12166;DHT22;6146;48.128;11.476;2022-10-19T17:26:05;15.50;99.90
12166;DHT22;6146;48.128;11.476;2022-10-19T17:28:31;15.50;99.90
12166;DHT22;6146;48.128;11.476;2022-10-19T17:31:05;15.40;99.90
12166;DHT22;6146;48.128;11.476;2022-10-19T17:33:32;15.40;99.90
12166;DHT22;6146;48.128;11.476;2022-10-19T17:36:11;15.30;99.90
12166;DHT22;6146;48.128;11.476;2022-10-19T17:38:38;15.30;99.90
12166;DHT22;6146;48.128;11.476;2022-10-19T17:41:08;15.30;99.90
12166;DHT22;6146;48.128;11.476;2022-10-19T17:43:36;15.30;99.90
12166;DHT22;6146;48.128;11.476;2022-10-19T17:46:04;15.20;99.90
12166;DHT22;6146;48.128;11.476;2022-10-19T17:48:31;15.20;99.90
12166;DHT22;6146;48.128;11.476;2022-10-19T17:51:03;15.10;99.90
12166;DHT22;6146;48.128;11.476;2022-10-19T17:53:30;15.10;99.90
12166;DHT22;6146;48.128;11.476;2022-10-19T17:55:59;15.00;99.90
12166;DHT22;6146;48.128;11.476;2022-10-19T17:58:25;15.00;99.90
12166;DHT22;6146;48.128;11.476;2022-10-19T18:00:55;14.90;99.90
12166;DHT22;6146;48.128;11.476;2022-10-19T18:03:23;14.90;99.90
12166;DHT22;6146;48.128;11.476;2022-10-19T18:06:12;14.80;99.90
12166;DHT22;6146;48.128;11.476;2022-10-19T18:08:41;14.80;99.90
12166;DHT22;6146;48.128;11.476;2022-10-19T18:11:09;14.80;99.90
12166;DHT22;6146;48.128;11.476;2022-10-19T18:13:36;14.70;99.90
12166;DHT22;6146;48.128;11.476;2022-10-19T18:16:04;14.60;99.90
12166;DHT22;6146;48.128;11.476;2022-10-19T18:18:31;14.50;99.90
12166;DHT22;6146;48.128;11.476;2022-10-19T18:20:57;14.50;99.90